Time;durP1;ratioP1;P1;durP2;ratioP2;P2;SDS_P1;SDS_P2;PMS_P1;PMS_P2;Temp;Humidity;BMP_temperature;BMP_pressure;BME280_temperature;BME280_humidity;BME280_pressure;Samples;Min_cycle;Max_cycle;Signal;HPM_P1;HPM_P2
2023/05/26 00:00:49;;;;;;;22.83;6.78;;;12.30;99.90;;;;;;5100944;28;20231;-74
2023/05/26 00:03:16;;;;;;;15.35;5.63;;;12.30;99.90;;;;;;5083691;28;20181;-77
2023/05/26 00:05:43;;;;;;;11.52;5.38;;;12.30;99.90;;;;;;5107217;28;20184;-73
2023/05/26 00:08:09;;;;;;;13.05;6.18;;;12.30;99.90;;;;;;5078234;28;20225;-74
2023/05/26 00:10:35;;;;;;;19.25;6.65;;;12.20;99.90;;;;;;5087590;28;20271;-74
2023/05/26 00:13:01;;;;;;;24.70;6.35;;;12.10;99.90;;;;;;5076044;28;20603;-75
2023/05/26 00:15:26;;;;;;;16.73;6.65;;;12.10;99.90;;;;;;5077977;28;20211;-74
2023/05/26 00:17:52;;;;;;;20.08;5.78;;;12.10;99.90;;;;;;5112961;28;20539;-74
2023/05/26 00:20:18;;;;;;;16.05;7.18;;;12.00;99.90;;;;;;5101018;28;20264;-74
2023/05/26 00:22:44;;;;;;;19.58;6.18;;;11.90;99.90;;;;;;5099467;28;20180;-74
2023/05/26 00:25:10;;;;;;;24.90;7.97;;;11.90;99.90;;;;;;5102659;28;20172;-73
2023/05/26 00:27:35;;;;;;;22.73;5.97;;;11.90;99.90;;;;;;5101738;28;20230;-77
2023/05/26 00:30:02;;;;;;;13.70;5.32;;;11.70;99.90;;;;;;5099829;28;20525;-74
2023/05/26 00:32:28;;;;;;;13.73;6.75;;;11.70;99.90;;;;;;5105030;28;20219;-74
2023/05/26 00:34:53;;;;;;;18.80;6.43;;;11.70;99.90;;;;;;5094011;28;20223;-74
2023/05/26 00:37:19;;;;;;;16.88;6.13;;;11.80;99.90;;;;;;5094576;28;20196;-74
2023/05/26 00:39:45;;;;;;;11.93;6.88;;;11.90;99.90;;;;;;5087282;28;20672;-74
2023/05/26 00:42:11;;;;;;;13.25;6.82;;;11.90;99.90;;;;;;5077626;28;20224;-75
2023/05/26 00:44:36;;;;;;;13.88;5.78;;;11.90;99.90;;;;;;5094743;28;20177;-73
2023/05/26 00:47:02;;;;;;;9.45;5.47;;;11.80;99.90;;;;;;5081583;28;20195;-73
2023/05/26 00:49:28;;;;;;;16.35;5.15;;;11.70;99.90;;;;;;5106022;28;20205;-73
2023/05/26 00:51:54;;;;;;;15.43;6.80;;;11.60;99.90;;;;;;5067906;28;20644;-75
2023/05/26 00:54:21;;;;;;;17.25;5.72;;;11.50;99.90;;;;;;5107112;28;20669;-74
2023/05/26 00:56:47;;;;;;;21.80;6.45;;;11.50;99.90;;;;;;5097519;28;20203;-75
2023/05/26 00:59:14;;;;;;;14.70;6.68;;;11.50;99.90;;;;;;5051886;28;20216;-74
2023/05/26 01:01:40;;;;;;;15.45;5.43;;;11.50;99.90;;;;;;5076947;28;20303;-74
2023/05/26 01:04:06;;;;;;;12.02;5.88;;;11.60;99.90;;;;;;5095431;28;20274;-75
2023/05/26 01:06:31;;;;;;;18.77;5.53;;;11.60;99.90;;;;;;5097427;28;20234;-75
2023/05/26 01:08:58;;;;;;;22.75;6.75;;;11.60;99.90;;;;;;5094546;28;20608;-74
2023/05/26 01:12:01;;;;;;;21.03;6.47;;;11.40;99.90;;;;;;5081203;28;20684;-74
2023/05/26 01:14:36;;;;;;;12.83;6.00;;;11.20;99.90;;;;;;5101842;28;20234;-76
2023/05/26 01:17:07;;;;;;;10.47;5.93;;;11.20;99.90;;;;;;5093627;28;20184;-75
2023/05/26 01:20:00;;;;;;;25.20;7.20;;;11.20;99.90;;;;;;5098832;28;20655;-74
2023/05/26 01:22:50;;;;;;;18.00;5.30;;;11.30;99.90;;;;;;5110402;28;20195;-74
2023/05/26 01:25:41;;;;;;;15.90;5.73;;;11.20;99.90;;;;;;5094649;28;20188;-74
2023/05/26 01:28:19;;;;;;;17.67;6.30;;;11.20;99.90;;;;;;5100144;28;20172;-75
2023/05/26 01:30:45;;;;;;;15.63;5.50;;;11.30;99.90;;;;;;5097713;28;20264;-74
2023/05/26 01:33:11;;;;;;;21.03;6.13;;;11.40;99.90;;;;;;5113280;28;20255;-74
2023/05/26 01:35:37;;;;;;;20.15;5.70;;;11.40;99.90;;;;;;5112116;28;20656;-74
2023/05/26 01:38:04;;;;;;;14.25;5.20;;;11.40;99.90;;;;;;5099469;28;20181;-74
2023/05/26 01:40:30;;;;;;;18.85;6.28;;;11.40;99.90;;;;;;5097583;28;20200;-74
2023/05/26 01:43:08;;;;;;;18.33;6.32;;;11.30;99.90;;;;;;5077753;28;20193;-74
2023/05/26 01:45:40;;;;;;;16.92;6.57;;;11.20;99.90;;;;;;5101103;28;20172;-74
2023/05/26 01:48:08;;;;;;;12.33;5.53;;;11.20;99.90;;;;;;5082188;28;20655;-75
2023/05/26 01:50:42;;;;;;;13.73;4.47;;;11.10;99.90;;;;;;5101090;28;20272;-74
2023/05/26 01:53:12;;;;;;;18.13;5.73;;;11.00;99.90;;;;;;5100139;28;20229;-74
2023/05/26 01:55:39;;;;;;;17.07;4.80;;;11.00;99.90;;;;;;5080676;28;20237;-74
2023/05/26 01:58:06;;;;;;;23.33;6.97;;;11.00;99.90;;;;;;5109559;28;20266;-75
2023/05/26 02:00:32;;;;;;;20.63;5.77;;;10.90;99.90;;;;;;5098468;28;20697;-74
2023/05/26 02:02:58;;;;;;;17.40;4.63;;;11.00;99.90;;;;;;5099960;28;20271;-75
2023/05/26 02:05:23;;;;;;;15.33;4.47;;;11.00;99.90;;;;;;5090873;28;20188;-74
2023/05/26 02:07:51;;;;;;;16.60;5.37;;;11.00;99.90;;;;;;5110715;28;20184;-75
2023/05/26 02:10:17;;;;;;;14.10;5.37;;;11.00;99.90;;;;;;5085418;28;20199;-75
2023/05/26 02:12:42;;;;;;;14.20;5.97;;;11.00;99.90;;;;;;5083799;28;20184;-75
2023/05/26 02:15:08;;;;;;;16.33;4.93;;;10.90;99.90;;;;;;5089474;28;20192;-75
2023/05/26 02:17:34;;;;;;;15.53;4.77;;;10.90;99.90;;;;;;5090688;28;20188;-73
2023/05/26 02:20:00;;;;;;;18.13;6.00;;;10.80;99.90;;;;;;5077229;28;20245;-75
2023/05/26 02:22:27;;;;;;;15.07;4.87;;;10.80;99.90;;;;;;5075006;28;20198;-77
2023/05/26 02:24:53;;;;;;;23.60;4.90;;;10.90;99.90;;;;;;5064504;28;20532;-74
2023/05/26 02:27:18;;;;;;;14.20;4.77;;;10.70;99.90;;;;;;5053987;28;20193;-75
2023/05/26 02:29:44;;;;;;;17.10;5.93;;;10.70;99.90;;;;;;5058522;28;20186;-79
2023/05/26 02:32:10;;;;;;;16.13;4.57;;;10.60;99.90;;;;;;5065442;28;20193;-74
2023/05/26 02:34:36;;;;;;;14.83;4.63;;;10.60;99.90;;;;;;5052591;28;20189;-75
2023/05/26 02:37:01;;;;;;;12.47;4.27;;;10.50;99.90;;;;;;5072552;28;20308;-75
2023/05/26 02:39:27;;;;;;;14.00;4.57;;;10.60;99.90;;;;;;5048280;28;20185;-74
2023/05/26 02:41:53;;;;;;;17.13;6.10;;;10.60;99.90;;;;;;5064027;28;20552;-74
2023/05/26 02:44:19;;;;;;;20.27;6.27;;;10.50;99.90;;;;;;5072154;28;20185;-75
2023/05/26 02:46:45;;;;;;;15.80;5.37;;;10.40;99.90;;;;;;5066732;28;20193;-74
2023/05/26 02:49:10;;;;;;;19.20;7.13;;;10.30;99.90;;;;;;5071749;28;20230;-74
2023/05/26 02:51:36;;;;;;;18.40;5.03;;;10.30;99.90;;;;;;5068195;28;20193;-75
2023/05/26 02:54:02;;;;;;;13.43;5.47;;;10.30;99.90;;;;;;5058587;28;20186;-74
2023/05/26 02:56:27;;;;;;;12.07;4.73;;;10.30;99.90;;;;;;5071738;28;20197;-74
2023/05/26 02:58:54;;;;;;;21.53;6.40;;;10.30;99.90;;;;;;5074134;28;20193;-75
2023/05/26 03:01:21;;;;;;;15.50;5.30;;;10.20;99.90;;;;;;5072170;28;20209;-75
2023/05/26 03:03:47;;;;;;;19.83;5.20;;;10.20;99.90;;;;;;5071795;28;20182;-75
2023/05/26 03:06:12;;;;;;;21.80;5.50;;;10.10;99.90;;;;;;5071969;28;20190;-74
2023/05/26 03:08:38;;;;;;;9.57;5.20;;;10.10;99.90;;;;;;5055677;28;20190;-74
2023/05/26 03:11:05;;;;;;;16.93;6.40;;;10.10;99.90;;;;;;5070678;28;20200;-75
2023/05/26 03:13:30;;;;;;;10.30;4.60;;;10.10;99.90;;;;;;5072534;28;20188;-74
2023/05/26 03:15:56;;;;;;;12.47;5.13;;;10.10;99.90;;;;;;5060716;28;20277;-75
2023/05/26 03:18:21;;;;;;;17.97;5.17;;;10.00;99.90;;;;;;5055777;28;20269;-75
2023/05/26 03:20:48;;;;;;;19.30;4.70;;;10.00;99.90;;;;;;5101240;28;20331;-75
2023/05/26 03:23:17;;;;;;;15.23;4.87;;;10.10;99.90;;;;;;5088841;28;20245;-74
2023/05/26 03:25:42;;;;;;;24.57;5.97;;;10.10;99.90;;;;;;5113308;28;20226;-74
2023/05/26 03:28:08;;;;;;;17.07;5.23;;;10.00;99.90;;;;;;5113904;28;20192;-74
2023/05/26 03:30:33;;;;;;;18.20;4.57;;;10.00;99.90;;;;;;5078887;28;20540;-78
2023/05/26 03:33:01;;;;;;;20.67;7.57;;;10.00;99.90;;;;;;5095009;28;20528;-74
2023/05/26 03:35:26;;;;;;;13.50;5.20;;;9.90;99.90;;;;;;5107535;28;20223;-74
2023/05/26 03:37:52;;;;;;;13.23;5.37;;;10.00;99.90;;;;;;5093575;28;20188;-73
2023/05/26 03:40:18;;;;;;;17.60;5.17;;;10.00;99.90;;;;;;5078469;28;20222;-73
2023/05/26 03:42:43;;;;;;;15.43;5.17;;;9.90;99.90;;;;;;5113054;28;20199;-74
2023/05/26 03:45:10;;;;;;;15.47;5.83;;;9.80;99.90;;;;;;5093213;28;20190;-74
2023/05/26 03:47:35;;;;;;;22.03;5.63;;;9.90;99.90;;;;;;5112576;28;20176;-74
2023/05/26 03:50:01;;;;;;;15.33;4.77;;;9.90;99.90;;;;;;5095564;28;20236;-75
2023/05/26 03:52:27;;;;;;;19.63;5.80;;;9.90;99.90;;;;;;5079620;28;20317;-74
2023/05/26 03:54:52;;;;;;;13.50;5.30;;;9.90;99.90;;;;;;5102006;28;20184;-75
2023/05/26 03:57:18;;;;;;;16.67;6.53;;;9.80;99.90;;;;;;5083333;28;20216;-74
2023/05/26 03:59:44;;;;;;;24.63;4.90;;;9.80;99.90;;;;;;5074401;28;20195;-74
2023/05/26 04:02:09;;;;;;;19.10;5.13;;;9.70;99.90;;;;;;5095135;28;20188;-74
2023/05/26 04:04:35;;;;;;;15.73;5.50;;;9.80;99.90;;;;;;5077734;28;20180;-75
2023/05/26 04:07:01;;;;;;;19.47;4.93;;;9.70;99.90;;;;;;5081611;28;20184;-77
2023/05/26 04:09:26;;;;;;;14.13;5.97;;;9.70;99.90;;;;;;5081116;28;20187;-74
2023/05/26 04:11:52;;;;;;;13.10;4.33;;;9.80;99.90;;;;;;5112406;28;20184;-73
2023/05/26 04:14:18;;;;;;;25.43;5.87;;;9.80;99.90;;;;;;5113187;28;20176;-75
2023/05/26 04:16:43;;;;;;;16.67;5.70;;;9.80;99.90;;;;;;5105203;28;20192;-74
2023/05/26 04:19:09;;;;;;;17.33;5.30;;;9.70;99.90;;;;;;5113009;28;20672;-74
2023/05/26 04:21:36;;;;;;;20.47;4.90;;;9.80;99.90;;;;;;5113025;28;20560;-74
2023/05/26 04:24:02;;;;;;;24.53;4.87;;;9.90;99.90;;;;;;5094910;28;20640;-73
2023/05/26 04:26:33;;;;;;;19.43;5.03;;;9.80;99.90;;;;;;5094584;28;20577;-74
2023/05/26 04:29:00;;;;;;;23.03;6.20;;;9.70;99.90;;;;;;5108578;28;20536;-74
2023/05/26 04:31:29;;;;;;;21.97;4.97;;;9.80;99.90;;;;;;5077177;28;20632;-74
2023/05/26 04:33:58;;;;;;;21.70;4.70;;;9.80;99.90;;;;;;5094602;28;20641;-74
2023/05/26 04:36:24;;;;;;;19.53;4.87;;;9.70;99.90;;;;;;5092044;28;20314;-74
2023/05/26 04:38:51;;;;;;;18.67;4.73;;;9.80;99.90;;;;;;5090638;28;20282;-79
2023/05/26 04:41:18;;;;;;;17.80;5.40;;;9.80;99.90;;;;;;5112901;28;20199;-74
2023/05/26 04:43:44;;;;;;;26.77;5.23;;;9.90;99.90;;;;;;5094408;28;20191;-75
2023/05/26 04:46:11;;;;;;;18.10;5.43;;;9.90;99.90;;;;;;5084489;28;20188;-74
2023/05/26 04:48:37;;;;;;;23.03;5.57;;;10.10;99.90;;;;;;5095880;28;20192;-72
2023/05/26 04:51:05;;;;;;;16.33;4.57;;;10.20;99.90;;;;;;5112060;28;20240;-74
2023/05/26 04:53:31;;;;;;;17.87;5.60;;;10.30;99.90;;;;;;5089014;28;20266;-74
2023/05/26 04:56:00;;;;;;;12.60;5.00;;;10.40;99.90;;;;;;5104715;28;20192;-73
2023/05/26 04:58:25;;;;;;;16.83;4.37;;;10.50;99.90;;;;;;5116981;28;20194;-74
2023/05/26 05:00:51;;;;;;;15.43;4.47;;;10.20;99.90;;;;;;5105480;28;20209;-74
2023/05/26 05:03:16;;;;;;;12.23;5.33;;;10.10;99.90;;;;;;5081674;28;20188;-75
2023/05/26 05:05:42;;;;;;;27.17;6.00;;;10.00;99.90;;;;;;5116709;28;20260;-74
2023/05/26 05:08:08;;;;;;;18.57;4.10;;;10.10;99.90;;;;;;5107610;28;20189;-75
2023/05/26 05:10:34;;;;;;;16.60;5.00;;;10.10;99.90;;;;;;5093083;28;20203;-74
2023/05/26 05:13:00;;;;;;;14.10;4.80;;;10.10;99.90;;;;;;5113911;28;20184;-75
2023/05/26 05:15:26;;;;;;;14.47;4.70;;;10.20;99.90;;;;;;5098296;28;20231;-74
2023/05/26 05:17:51;;;;;;;16.53;5.67;;;10.20;99.90;;;;;;5116331;28;20203;-74
2023/05/26 05:20:17;;;;;;;21.33;5.80;;;10.20;99.90;;;;;;5094316;28;20232;-74
2023/05/26 05:22:43;;;;;;;22.37;5.40;;;10.30;99.90;;;;;;5080951;28;20565;-74
2023/05/26 05:25:09;;;;;;;21.37;7.13;;;10.30;99.90;;;;;;5090740;28;20181;-74
2023/05/26 05:27:35;;;;;;;17.40;4.30;;;10.20;99.90;;;;;;5095021;28;20296;-73
2023/05/26 05:30:00;;;;;;;13.83;4.03;;;10.30;99.90;;;;;;5087828;28;20181;-74
2023/05/26 05:32:26;;;;;;;20.70;4.67;;;10.40;99.90;;;;;;5081515;28;20259;-73
2023/05/26 05:34:52;;;;;;;18.00;6.57;;;10.50;99.90;;;;;;5091461;28;20252;-72
2023/05/26 05:37:17;;;;;;;24.50;5.40;;;10.50;99.90;;;;;;5083559;28;20221;-74
2023/05/26 05:39:43;;;;;;;14.60;4.50;;;10.50;99.90;;;;;;5093519;28;20199;-75
2023/05/26 05:42:08;;;;;;;16.17;5.17;;;10.50;99.90;;;;;;5073946;28;20566;-74
2023/05/26 05:44:35;;;;;;;16.43;5.87;;;10.50;99.90;;;;;;5095459;28;20606;-74
2023/05/26 05:47:00;;;;;;;20.17;4.53;;;10.50;99.90;;;;;;5084751;28;20662;-74
2023/05/26 05:49:26;;;;;;;19.53;5.47;;;10.50;99.90;;;;;;5086584;28;20189;-74
2023/05/26 05:51:52;;;;;;;19.43;6.17;;;10.60;99.90;;;;;;5090901;28;20193;-73
2023/05/26 05:54:17;;;;;;;22.80;5.63;;;10.70;99.90;;;;;;5095000;28;20200;-74
2023/05/26 05:56:43;;;;;;;26.17;6.47;;;10.80;99.90;;;;;;5093534;28;20237;-75
2023/05/26 05:59:10;;;;;;;14.70;4.37;;;10.90;99.90;;;;;;5094263;28;20294;-75
2023/05/26 06:01:36;;;;;;;14.93;4.03;;;10.90;99.90;;;;;;5095525;28;20221;-75
2023/05/26 06:04:02;;;;;;;18.93;4.43;;;11.00;99.90;;;;;;5094105;28;20192;-75
2023/05/26 06:06:28;;;;;;;22.73;5.83;;;11.10;99.90;;;;;;5093598;28;20664;-74
2023/05/26 06:08:54;;;;;;;18.20;5.60;;;11.20;99.90;;;;;;5091730;28;20196;-74
2023/05/26 06:11:21;;;;;;;11.18;4.55;;;11.30;99.90;;;;;;5075405;28;20193;-81
2023/05/26 06:13:46;;;;;;;15.23;4.75;;;11.60;99.90;;;;;;5086032;28;20188;-75
2023/05/26 06:16:12;;;;;;;15.60;5.00;;;11.60;99.90;;;;;;5094916;28;20649;-74
2023/05/26 06:18:38;;;;;;;16.58;5.20;;;11.50;99.90;;;;;;5094345;28;20185;-75
2023/05/26 06:21:04;;;;;;;17.00;5.32;;;11.70;99.90;;;;;;5077356;28;20229;-75
2023/05/26 06:23:29;;;;;;;14.30;5.38;;;11.90;99.90;;;;;;5095085;28;20177;-74
2023/05/26 06:25:55;;;;;;;17.80;4.90;;;11.80;99.90;;;;;;5092872;28;20192;-75
2023/05/26 06:28:21;;;;;;;16.25;4.60;;;11.90;99.90;;;;;;5067616;28;20548;-77
2023/05/26 06:30:47;;;;;;;20.40;4.85;;;12.10;99.90;;;;;;5093833;28;20188;-75
2023/05/26 06:33:13;;;;;;;22.70;6.63;;;12.10;99.90;;;;;;5093112;28;20191;-75
2023/05/26 06:35:38;;;;;;;17.45;3.78;;;12.00;99.90;;;;;;5092788;28;20184;-75
2023/05/26 06:38:04;;;;;;;28.45;7.88;;;11.90;99.90;;;;;;5089255;28;20182;-74
2023/05/26 06:40:30;;;;;;;19.13;4.05;;;12.00;99.90;;;;;;5088361;28;20217;-73
2023/05/26 06:42:55;;;;;;;18.98;5.00;;;12.20;99.90;;;;;;5091942;28;20188;-75
2023/05/26 06:45:21;;;;;;;15.15;5.50;;;12.50;99.90;;;;;;5089362;28;20497;-75
2023/05/26 06:47:47;;;;;;;20.23;4.07;;;12.40;99.90;;;;;;5082997;28;20605;-75
2023/05/26 06:50:13;;;;;;;9.90;3.85;;;12.20;99.90;;;;;;5076041;28;20565;-74
2023/05/26 06:52:39;;;;;;;20.80;4.60;;;12.20;99.90;;;;;;5093265;28;20177;-76
2023/05/26 06:55:05;;;;;;;13.40;4.10;;;12.30;99.90;;;;;;5093135;28;20579;-74
2023/05/26 06:57:30;;;;;;;15.40;4.82;;;12.50;99.90;;;;;;5092929;28;20177;-74
2023/05/26 06:59:56;;;;;;;18.63;4.55;;;12.90;99.90;;;;;;5092512;28;20196;-74
2023/05/26 07:02:22;;;;;;;20.13;6.57;;;13.70;99.90;;;;;;5093304;28;20188;-76
2023/05/26 07:04:47;;;;;;;14.73;4.43;;;14.40;99.90;;;;;;5085087;28;20177;-78
2023/05/26 07:07:13;;;;;;;18.88;5.18;;;14.60;99.90;;;;;;5092860;28;20184;-76
2023/05/26 07:09:39;;;;;;;14.52;4.78;;;14.90;99.90;;;;;;5091830;28;20186;-77
2023/05/26 07:12:06;;;;;;;17.95;5.38;;;14.30;99.90;;;;;;5085228;28;20322;-74
2023/05/26 07:14:32;;;;;;;18.85;4.25;;;14.90;99.90;;;;;;5088276;28;20193;-75
2023/05/26 07:16:57;;;;;;;10.43;2.67;;;16.80;99.90;;;;;;5076082;28;20200;-76
2023/05/26 07:19:23;;;;;;;21.65;5.32;;;17.60;99.90;;;;;;5099994;28;20242;-75
2023/05/26 07:21:49;;;;;;;12.77;3.47;;;17.50;99.90;;;;;;5086394;28;20261;-75
2023/05/26 07:24:16;;;;;;;9.80;4.18;;;17.30;99.90;;;;;;5109647;28;20215;-75
2023/05/26 07:26:41;;;;;;;8.57;3.58;;;17.90;99.90;;;;;;5114064;28;20249;-75
2023/05/26 07:29:07;;;;;;;7.90;3.13;;;18.50;99.90;;;;;;5113723;28;20587;-74
2023/05/26 07:31:33;;;;;;;22.58;5.90;;;18.30;99.90;;;;;;5092274;28;20188;-75
2023/05/26 07:33:59;;;;;;;13.40;3.65;;;17.50;99.90;;;;;;5096160;28;20529;-75
2023/05/26 07:36:25;;;;;;;12.13;3.40;;;17.10;99.90;;;;;;5092021;28;20256;-76
2023/05/26 07:38:50;;;;;;;14.90;4.10;;;16.70;99.90;;;;;;5102987;28;20776;-77
2023/05/26 07:41:16;;;;;;;12.00;3.65;;;16.60;99.90;;;;;;5106344;28;20211;-73
2023/05/26 07:43:42;;;;;;;12.65;4.10;;;16.60;99.90;;;;;;5109817;28;20188;-75
2023/05/26 07:46:07;;;;;;;9.95;3.55;;;17.60;99.90;;;;;;5096511;28;20184;-75
2023/05/26 07:48:33;;;;;;;13.45;4.60;;;18.50;99.90;;;;;;5074179;28;20569;-74
2023/05/26 07:50:59;;;;;;;7.85;4.05;;;18.70;99.90;;;;;;5113268;28;20187;-74
2023/05/26 07:53:24;;;;;;;7.18;3.97;;;19.30;99.90;;;;;;5114034;28;20190;-75
2023/05/26 07:55:50;;;;;;;11.07;3.70;;;18.40;99.90;;;;;;5092724;28;20264;-75
2023/05/26 07:58:17;;;;;;;14.07;4.28;;;18.80;99.90;;;;;;5113063;28;20192;-75
2023/05/26 08:00:43;;;;;;;11.27;3.83;;;18.50;99.90;;;;;;5095308;28;20251;-75
2023/05/26 08:03:08;;;;;;;11.50;4.00;;;18.00;99.90;;;;;;5108702;28;20191;-75
2023/05/26 08:05:34;;;;;;;8.73;4.45;;;18.10;99.90;;;;;;5113213;28;20220;-75
2023/05/26 08:08:00;;;;;;;12.48;4.85;;;18.30;99.90;;;;;;5094878;28;20613;-75
2023/05/26 08:10:25;;;;;;;11.25;3.55;;;18.70;99.90;;;;;;5094617;28;20276;-74
2023/05/26 08:12:52;;;;;;;14.25;4.57;;;19.60;99.90;;;;;;5089074;28;20177;-75
2023/05/26 08:15:20;;;;;;;10.65;3.75;;;19.60;99.90;;;;;;5106576;28;20216;-75
2023/05/26 08:17:47;;;;;;;13.75;3.85;;;20.00;99.90;;;;;;5089139;28;20521;-77
2023/05/26 08:20:13;;;;;;;12.48;3.72;;;19.80;99.90;;;;;;5102825;28;20685;-77
2023/05/26 08:22:38;;;;;;;13.02;3.05;;;19.30;99.90;;;;;;5096251;28;20288;-76
2023/05/26 08:25:04;;;;;;;15.13;3.70;;;18.90;99.90;;;;;;5107836;28;20542;-76
2023/05/26 08:27:30;;;;;;;10.48;4.10;;;20.00;99.90;;;;;;5094200;28;20713;-76
2023/05/26 08:29:56;;;;;;;14.73;4.32;;;20.20;99.90;;;;;;5101711;28;20183;-75
2023/05/26 08:32:23;;;;;;;16.63;4.65;;;20.90;99.90;;;;;;5113012;28;20180;-75
2023/05/26 08:34:48;;;;;;;15.15;4.72;;;20.50;99.90;;;;;;5109568;28;20221;-76
2023/05/26 08:37:15;;;;;;;9.52;4.47;;;20.60;99.90;;;;;;5110692;28;20219;-76
2023/05/26 08:39:41;;;;;;;9.77;3.60;;;20.80;99.90;;;;;;5076297;28;20633;-75
2023/05/26 08:42:15;;;;;;;6.45;3.20;;;20.70;99.90;;;;;;5089816;28;20212;-75
2023/05/26 08:44:42;;;;;;;16.88;4.28;;;19.50;99.90;;;;;;5110052;28;20554;-75
2023/05/26 08:47:11;;;;;;;7.68;3.63;;;19.50;99.90;;;;;;5099763;28;20186;-76
2023/05/26 08:49:41;;;;;;;9.50;3.70;;;19.50;99.90;;;;;;5088533;28;20179;-74
2023/05/26 08:52:13;;;;;;;9.75;5.00;;;20.10;99.90;;;;;;5094177;28;20205;-83
2023/05/26 08:54:42;;;;;;;8.80;3.58;;;19.90;99.90;;;;;;5105576;28;20251;-75
2023/05/26 08:57:11;;;;;;;16.42;3.70;;;19.90;99.90;;;;;;5103266;28;20192;-73
2023/05/26 08:59:41;;;;;;;8.10;3.33;;;20.00;99.90;;;;;;5104469;28;20192;-75
2023/05/26 09:02:08;;;;;;;12.02;3.45;;;20.10;99.90;;;;;;5105345;28;20201;-73
2023/05/26 09:04:33;;;;;;;11.68;4.30;;;20.60;99.90;;;;;;5108412;28;20183;-76
2023/05/26 09:06:59;;;;;;;11.38;4.25;;;20.70;99.90;;;;;;5092107;28;20190;-75
2023/05/26 09:09:25;;;;;;;8.30;4.28;;;20.50;99.90;;;;;;5098329;28;20545;-74
2023/05/26 09:11:51;;;;;;;7.78;4.13;;;19.90;99.90;;;;;;5110219;28;20197;-73
2023/05/26 09:14:19;;;;;;;15.27;4.72;;;19.80;99.90;;;;;;5088121;28;20271;-75
2023/05/26 09:16:45;;;;;;;11.25;3.83;;;20.40;99.90;;;;;;5109930;28;20176;-75
2023/05/26 09:19:15;;;;;;;16.10;4.90;;;19.80;99.90;;;;;;5105270;28;20639;-74
2023/05/26 09:21:48;;;;;;;15.55;4.63;;;19.50;99.90;;;;;;5087328;28;20196;-71
2023/05/26 09:24:16;;;;;;;9.45;3.90;;;18.70;99.90;;;;;;5105213;28;20532;-73
2023/05/26 09:26:45;;;;;;;8.73;4.13;;;18.20;99.90;;;;;;5105913;28;20172;-76
2023/05/26 09:29:11;;;;;;;19.90;4.40;;;17.70;99.90;;;;;;5097618;28;20659;-76
2023/05/26 09:31:47;;;;;;;11.95;4.20;;;17.20;99.90;;;;;;5089017;28;20172;-74
2023/05/26 09:34:14;;;;;;;9.98;4.50;;;16.80;99.90;;;;;;5101276;28;20187;-74
2023/05/26 09:36:41;;;;;;;13.25;4.85;;;16.80;99.90;;;;;;5085947;28;20245;-75
2023/05/26 09:39:09;;;;;;;13.32;4.07;;;16.60;99.90;;;;;;5083125;28;20704;-78
2023/05/26 09:41:45;;;;;;;15.30;5.10;;;16.50;99.90;;;;;;5111918;28;20567;-75
2023/05/26 09:44:16;;;;;;;19.25;4.28;;;16.40;99.90;;;;;;5097292;28;20191;-75
2023/05/26 09:46:44;;;;;;;17.00;4.40;;;16.40;99.90;;;;;;5103533;28;20640;-75
2023/05/26 09:49:14;;;;;;;11.00;5.35;;;16.70;99.90;;;;;;5115822;28;20652;-76
2023/05/26 09:51:41;;;;;;;11.25;4.00;;;17.20;99.90;;;;;;5101936;28;20234;-75
2023/05/26 09:54:09;;;;;;;11.82;3.90;;;16.90;99.90;;;;;;5085200;28;20188;-78
2023/05/26 09:56:36;;;;;;;12.85;5.15;;;16.80;99.90;;;;;;5095129;28;20194;-74
2023/05/26 09:59:06;;;;;;;7.45;5.05;;;16.70;99.90;;;;;;5115666;28;20184;-77
2023/05/26 10:01:36;;;;;;;11.35;4.20;;;16.50;99.90;;;;;;5089586;28;20204;-75
2023/05/26 10:04:07;;;;;;;23.33;6.00;;;16.40;99.90;;;;;;5115105;28;20176;-74
2023/05/26 10:06:39;;;;;;;13.75;5.10;;;16.50;99.90;;;;;;5115628;28;20191;-76
2023/05/26 10:09:06;;;;;;;16.77;4.13;;;16.70;99.90;;;;;;5114823;28;20534;-71
2023/05/26 10:11:35;;;;;;;22.90;5.30;;;16.80;99.90;;;;;;5113159;28;20705;-76
2023/05/26 10:14:02;;;;;;;13.60;4.53;;;16.60;99.90;;;;;;5109317;28;20578;-76
2023/05/26 10:16:29;;;;;;;13.45;5.18;;;16.70;99.90;;;;;;5114894;28;20632;-71
2023/05/26 10:18:55;;;;;;;13.48;4.38;;;16.50;99.90;;;;;;5108729;28;20204;-78
2023/05/26 10:21:26;;;;;;;13.07;4.15;;;16.50;99.90;;;;;;5091576;28;20204;-77
2023/05/26 10:24:41;;;;;;;14.13;5.18;;;16.60;99.90;;;;;;5102761;28;20583;-77
2023/05/26 10:27:23;;;;;;;12.85;4.50;;;16.60;99.90;;;;;;5085922;28;20203;-75
2023/05/26 10:30:00;;;;;;;11.20;3.85;;;16.70;99.90;;;;;;5109814;28;20222;-74
2023/05/26 10:32:45;;;;;;;11.02;3.75;;;17.10;99.90;;;;;;5089347;28;20175;-75
2023/05/26 10:35:25;;;;;;;9.80;3.78;;;17.40;99.90;;;;;;5111227;28;20176;-75
2023/05/26 10:38:03;;;;;;;14.27;4.25;;;17.40;99.90;;;;;;5102015;28;20180;-78
2023/05/26 10:41:04;;;;;;;15.27;4.80;;;17.20;99.90;;;;;;5112322;28;20214;-84
2023/05/26 10:43:30;;;;;;;8.90;4.10;;;16.80;99.90;;;;;;5084330;28;20265;-75
2023/05/26 10:46:03;;;;;;;11.57;4.00;;;16.90;99.90;;;;;;5091908;28;20224;-79
2023/05/26 10:48:37;;;;;;;12.90;3.38;;;17.10;99.90;;;;;;5098612;28;20227;-73
2023/05/26 10:51:02;;;;;;;11.88;3.88;;;17.40;99.90;;;;;;5114863;28;20188;-74
2023/05/26 10:53:39;;;;;;;8.05;3.05;;;17.20;99.90;;;;;;5096009;28;20187;-75
2023/05/26 10:56:08;;;;;;;12.73;4.55;;;17.00;99.90;;;;;;5114842;28;20247;-76
2023/05/26 10:58:35;;;;;;;12.60;3.83;;;17.00;99.90;;;;;;5114280;28;20225;-75
2023/05/26 11:01:08;;;;;;;11.90;3.95;;;17.10;99.90;;;;;;5114650;28;20214;-75
2023/05/26 11:03:43;;;;;;;10.75;4.50;;;17.30;99.90;;;;;;5114199;28;20203;-76
2023/05/26 11:06:13;;;;;;;16.73;4.05;;;17.30;99.90;;;;;;5114592;28;20184;-75
2023/05/26 11:08:41;;;;;;;14.23;4.38;;;17.50;99.90;;;;;;5096361;28;20180;-71
2023/05/26 11:11:11;;;;;;;12.13;3.78;;;17.70;99.90;;;;;;5114714;28;20198;-75
2023/05/26 11:13:49;;;;;;;8.55;3.33;;;17.70;99.90;;;;;;5095691;28;20188;-71
2023/05/26 11:16:22;;;;;;;13.50;4.05;;;17.80;99.90;;;;;;5093532;28;20655;-71
2023/05/26 11:18:57;;;;;;;12.70;3.92;;;17.80;99.90;;;;;;5114156;28;20820;-75
2023/05/26 11:21:31;;;;;;;9.75;3.00;;;17.80;99.90;;;;;;5109890;28;20199;-72
2023/05/26 11:23:59;;;;;;;7.43;4.10;;;17.80;99.90;;;;;;5113396;28;20549;-72
2023/05/26 11:26:27;;;;;;;8.02;3.63;;;18.00;99.90;;;;;;5095563;28;20645;-72
2023/05/26 11:28:54;;;;;;;13.15;4.53;;;18.10;99.90;;;;;;5104227;28;20241;-72
2023/05/26 11:31:22;;;;;;;13.23;3.47;;;17.90;99.90;;;;;;5089349;28;20192;-75
2023/05/26 11:33:48;;;;;;;6.47;2.83;;;17.90;99.90;;;;;;5087082;28;20184;-73
2023/05/26 11:36:18;;;;;;;7.13;3.92;;;18.00;99.90;;;;;;5113729;28;20198;-73
2023/05/26 11:38:47;;;;;;;12.48;4.18;;;18.00;99.90;;;;;;5109513;28;20191;-73
2023/05/26 11:41:15;;;;;;;13.02;3.40;;;17.80;99.90;;;;;;5083831;28;20286;-74
2023/05/26 11:43:44;;;;;;;11.98;3.38;;;17.80;99.90;;;;;;5093200;28;20547;-73
2023/05/26 11:46:13;;;;;;;12.35;3.65;;;17.70;99.90;;;;;;5113772;28;20316;-75
2023/05/26 11:48:40;;;;;;;15.25;4.05;;;17.80;99.90;;;;;;5099419;28;20663;-76
2023/05/26 11:51:06;;;;;;;9.32;3.33;;;18.20;99.90;;;;;;5083868;28;20184;-76
2023/05/26 11:53:32;;;;;;;9.48;3.38;;;18.30;99.90;;;;;;5110487;28;20179;-73
2023/05/26 11:56:09;;;;;;;9.88;2.72;;;18.20;99.90;;;;;;5107121;28;20275;-75
2023/05/26 11:58:57;;;;;;;6.43;3.08;;;18.40;99.90;;;;;;5076012;28;20176;-77
2023/05/26 12:01:25;;;;;;;14.43;3.47;;;18.30;99.90;;;;;;5084223;28;20215;-73
2023/05/26 12:03:51;;;;;;;11.18;3.05;;;18.10;99.90;;;;;;5077071;28;20222;-74
2023/05/26 12:06:18;;;;;;;6.03;2.88;;;18.00;99.90;;;;;;5090085;28;20203;-73
2023/05/26 12:08:48;;;;;;;10.18;2.65;;;18.20;99.90;;;;;;5113294;28;20271;-72
2023/05/26 12:11:42;;;;;;;9.02;3.10;;;18.30;99.90;;;;;;5081301;28;20193;-73
2023/05/26 12:14:12;;;;;;;9.55;3.33;;;18.20;99.90;;;;;;5109458;28;20191;-79
2023/05/26 12:16:43;;;;;;;14.55;3.35;;;18.20;99.90;;;;;;5102069;28;20262;-76
2023/05/26 12:19:11;;;;;;;10.80;3.13;;;18.10;99.90;;;;;;5106699;28;20227;-75
2023/05/26 12:21:41;;;;;;;15.20;3.33;;;18.10;99.90;;;;;;5100949;28;20203;-76
2023/05/26 12:24:07;;;;;;;6.03;2.65;;;18.30;99.90;;;;;;5085221;28;20184;-73
2023/05/26 12:26:33;;;;;;;8.10;3.05;;;18.60;99.90;;;;;;5079197;28;20249;-74
2023/05/26 12:29:16;;;;;;;9.93;3.33;;;18.60;99.90;;;;;;5087249;28;20188;-72
2023/05/26 12:31:46;;;;;;;7.60;3.15;;;18.70;99.90;;;;;;5100041;28;20187;-73
2023/05/26 12:34:14;;;;;;;11.40;3.03;;;18.50;99.90;;;;;;5092273;28;20670;-74
2023/05/26 12:36:41;;;;;;;10.98;2.83;;;18.50;99.90;;;;;;5097871;28;20539;-71
2023/05/26 12:39:07;;;;;;;5.95;2.47;;;18.60;99.90;;;;;;5088190;28;20187;-74
2023/05/26 12:41:34;;;;;;;13.15;4.10;;;18.60;99.90;;;;;;5112778;28;20239;-74